createdAt,value
2023-03-27T00:01:52.958Z,2.57
2023-03-27T00:04:26.241Z,2.80
2023-03-27T00:07:00.615Z,2.90
2023-03-27T00:09:33.654Z,2.87
2023-03-27T00:12:07.444Z,2.57
2023-03-27T00:14:40.467Z,2.90
2023-03-27T00:17:13.525Z,3.40
2023-03-27T00:19:46.733Z,2.80
2023-03-27T00:22:21.085Z,2.40
2023-03-27T00:24:54.112Z,2.80
2023-03-27T00:27:27.155Z,3.07
2023-03-27T00:30:00.227Z,2.80
2023-03-27T00:32:34.086Z,3.23
2023-03-27T00:35:09.300Z,3.97
2023-03-27T00:37:43.658Z,3.80
2023-03-27T00:40:17.784Z,3.70
2023-03-27T00:42:52.814Z,3.30
2023-03-27T00:45:28.789Z,4.00
2023-03-27T00:48:06.690Z,4.20
2023-03-27T00:50:44.562Z,3.57
2023-03-27T00:53:26.169Z,3.33
2023-03-27T00:56:04.291Z,3.57
2023-03-27T00:58:43.375Z,3.30
2023-03-27T01:01:18.496Z,3.70
2023-03-27T01:03:53.807Z,3.53
2023-03-27T01:06:27.838Z,2.93
2023-03-27T01:09:02.297Z,3.60
2023-03-27T01:11:49.415Z,3.27
2023-03-27T01:14:32.286Z,3.10
2023-03-27T01:17:21.529Z,2.90
2023-03-27T01:20:27.315Z,3.50
2023-03-27T01:23:58.485Z,2.50
2023-03-27T01:26:58.258Z,2.60
2023-03-27T01:29:46.890Z,2.50
2023-03-27T01:33:08.870Z,2.50
2023-03-27T01:36:25.948Z,2.17
2023-03-27T01:39:36.294Z,2.40
2023-03-27T01:42:20.088Z,2.80
2023-03-27T01:45:00.665Z,2.70
2023-03-27T01:47:43.710Z,2.23
2023-03-27T01:50:21.504Z,2.40
2023-03-27T01:53:00.064Z,2.40
2023-03-27T01:55:37.675Z,2.50
2023-03-27T01:58:14.896Z,2.33
2023-03-27T02:00:54.016Z,2.20
2023-03-27T02:03:33.651Z,2.03
2023-03-27T02:06:11.632Z,2.50
2023-03-27T02:08:51.148Z,2.50
2023-03-27T02:11:30.749Z,2.40
2023-03-27T02:14:08.144Z,2.33
2023-03-27T02:16:47.040Z,2.20
2023-03-27T02:19:26.065Z,2.53
2023-03-27T02:21:59.236Z,2.67
2023-03-27T02:24:32.245Z,2.73
2023-03-27T02:27:15.757Z,2.47
2023-03-27T02:30:03.388Z,2.50
2023-03-27T02:32:47.062Z,2.80
2023-03-27T02:35:35.566Z,2.47
2023-03-27T02:38:15.152Z,2.63
2023-03-27T02:40:58.754Z,2.30
2023-03-27T02:43:39.153Z,2.80
2023-03-27T02:46:18.619Z,2.70
2023-03-27T02:48:57.037Z,2.87
2023-03-27T02:51:33.241Z,3.07
2023-03-27T02:54:11.177Z,3.10
2023-03-27T02:56:49.731Z,3.00
2023-03-27T02:59:30.794Z,3.37
2023-03-27T03:02:05.209Z,3.20
2023-03-27T03:04:46.156Z,3.30
2023-03-27T03:07:19.292Z,3.83
2023-03-27T03:09:52.933Z,3.50
2023-03-27T03:12:25.974Z,3.80
2023-03-27T03:15:00.414Z,4.30
2023-03-27T03:17:33.484Z,3.50
2023-03-27T03:20:09.806Z,4.10
2023-03-27T03:22:42.861Z,3.30
2023-03-27T03:25:16.097Z,3.83
2023-03-27T03:27:49.264Z,4.23
2023-03-27T03:30:23.716Z,4.53
2023-03-27T03:32:57.765Z,3.87
2023-03-27T03:35:30.874Z,4.07
2023-03-27T03:38:03.902Z,4.63
2023-03-27T03:40:37.319Z,4.53
2023-03-27T03:43:10.340Z,5.03
2023-03-27T03:45:44.736Z,4.90
2023-03-27T03:48:17.987Z,5.07
2023-03-27T03:50:51.563Z,5.57
2023-03-27T03:53:24.579Z,5.90
2023-03-27T03:55:57.623Z,6.27
2023-03-27T03:58:34.373Z,5.10
2023-03-27T04:01:10.283Z,5.00
2023-03-27T04:03:43.999Z,7.20
2023-03-27T04:06:21.060Z,6.43
2023-03-27T04:08:54.804Z,4.43
2023-03-27T04:11:27.831Z,4.60
2023-03-27T04:14:00.931Z,5.87
2023-03-27T04:16:35.313Z,4.47
2023-03-27T04:19:08.384Z,6.10
2023-03-27T04:21:42.333Z,5.80
2023-03-27T04:24:18.146Z,6.03
2023-03-27T04:26:51.210Z,7.37
2023-03-27T04:29:24.273Z,6.83
2023-03-27T04:31:59.117Z,6.97
2023-03-27T04:34:32.157Z,8.23
2023-03-27T04:37:05.574Z,6.37
2023-03-27T04:39:42.917Z,8.33
2023-03-27T04:42:16.464Z,8.40
2023-03-27T04:44:49.487Z,12.67
2023-03-27T04:47:23.893Z,8.03
2023-03-27T04:49:59.346Z,5.97
2023-03-27T04:52:33.403Z,7.97
2023-03-27T04:55:08.674Z,9.10
2023-03-27T04:57:42.177Z,11.43
2023-03-27T05:00:19.063Z,10.43
2023-03-27T05:02:56.047Z,10.57
2023-03-27T05:05:29.308Z,9.20
2023-03-27T05:08:02.887Z,10.63
2023-03-27T05:10:36.136Z,11.67
2023-03-27T05:13:09.425Z,9.17
2023-03-27T05:15:42.966Z,12.10
2023-03-27T05:18:17.386Z,9.40
2023-03-27T05:20:50.498Z,8.57
2023-03-27T05:23:23.542Z,9.87
2023-03-27T05:26:00.138Z,10.23
2023-03-27T05:28:33.871Z,11.30
2023-03-27T05:31:10.738Z,9.47
2023-03-27T05:33:45.288Z,11.93
2023-03-27T05:36:18.940Z,8.70
2023-03-27T05:38:53.161Z,11.87
2023-03-27T05:41:26.531Z,10.10
2023-03-27T05:43:59.597Z,8.90
2023-03-27T05:46:32.725Z,10.20
2023-03-27T05:49:07.188Z,9.70
2023-03-27T05:51:40.302Z,9.37
2023-03-27T05:54:20.406Z,10.83
2023-03-27T05:56:53.521Z,9.57
2023-03-27T05:59:26.602Z,7.97
2023-03-27T06:01:59.731Z,8.23
2023-03-27T06:04:34.154Z,10.57
2023-03-27T06:07:07.287Z,7.53
2023-03-27T06:09:40.355Z,8.07
2023-03-27T06:12:13.346Z,9.03
2023-03-27T06:14:46.637Z,8.00
2023-03-27T06:17:19.637Z,6.23
2023-03-27T06:19:54.146Z,10.13
2023-03-27T06:22:27.480Z,7.20
2023-03-27T06:25:00.506Z,7.37
2023-03-27T06:27:33.615Z,9.03
2023-03-27T06:30:09.475Z,11.33
2023-03-27T06:32:46.143Z,9.07
2023-03-27T06:35:21.956Z,9.67
2023-03-27T06:37:56.058Z,8.43
2023-03-27T06:40:31.413Z,10.97
2023-03-27T06:43:07.562Z,8.77
2023-03-27T06:45:45.034Z,8.97
2023-03-27T06:48:22.085Z,10.90
2023-03-27T06:50:57.272Z,9.03
2023-03-27T06:53:33.177Z,9.17
2023-03-27T06:56:10.216Z,8.07
2023-03-27T06:58:43.246Z,8.77
2023-03-27T07:01:16.801Z,10.53
2023-03-27T07:03:50.054Z,8.87
2023-03-27T07:06:25.261Z,9.13
2023-03-27T07:08:58.457Z,9.23
2023-03-27T07:11:32.201Z,10.30
2023-03-27T07:14:05.311Z,7.07
2023-03-27T07:16:38.417Z,9.77
2023-03-27T07:19:11.458Z,7.73
2023-03-27T07:21:45.987Z,6.90
2023-03-27T07:24:19.028Z,6.77
2023-03-27T07:26:52.086Z,12.27
2023-03-27T07:29:25.160Z,9.13
2023-03-27T07:32:01.559Z,8.20
2023-03-27T07:34:37.531Z,7.17
2023-03-27T07:37:12.325Z,7.30
2023-03-27T07:39:45.382Z,9.03
2023-03-27T07:42:19.368Z,9.50
2023-03-27T07:44:52.407Z,8.90
2023-03-27T07:47:25.531Z,7.37
2023-03-27T07:49:58.613Z,7.80
2023-03-27T07:52:34.750Z,9.47
2023-03-27T07:55:09.224Z,8.73
2023-03-27T07:57:59.201Z,7.30
2023-03-27T08:00:35.533Z,8.10
2023-03-27T08:03:11.664Z,9.10
2023-03-27T08:05:45.205Z,8.63
2023-03-27T08:08:19.889Z,11.53
2023-03-27T08:10:56.913Z,10.73
2023-03-27T08:13:30.754Z,11.00
2023-03-27T08:16:06.116Z,6.83
2023-03-27T08:18:39.565Z,7.90
2023-03-27T08:21:12.943Z,7.03
2023-03-27T08:23:47.765Z,10.20
2023-03-27T08:26:20.932Z,8.47
2023-03-27T08:28:56.096Z,6.30
2023-03-27T08:31:31.154Z,6.30
2023-03-27T08:34:04.285Z,7.13
2023-03-27T08:36:38.292Z,7.70
2023-03-27T08:39:12.889Z,5.60
2023-03-27T08:41:55.095Z,8.07
2023-03-27T08:44:32.123Z,4.10
2023-03-27T08:47:10.615Z,8.43
2023-03-27T08:49:49.147Z,7.40
2023-03-27T08:52:25.235Z,5.73
2023-03-27T08:55:06.840Z,7.87
2023-03-27T08:57:40.005Z,4.30
2023-03-27T09:00:23.332Z,4.33
2023-03-27T09:03:06.279Z,5.83
2023-03-27T09:05:44.709Z,5.00
2023-03-27T09:08:32.584Z,5.50
2023-03-27T09:11:21.665Z,8.90
2023-03-27T09:13:55.320Z,4.93
2023-03-27T09:16:33.281Z,7.13
2023-03-27T09:19:16.740Z,4.73
2023-03-27T09:21:52.783Z,4.83
2023-03-27T09:24:33.960Z,5.40
2023-03-27T09:27:18.755Z,6.03
2023-03-27T09:30:05.807Z,7.70
2023-03-27T09:32:39.830Z,8.23
2023-03-27T09:35:15.276Z,3.87
2023-03-27T09:37:49.430Z,4.27
2023-03-27T09:40:30.452Z,6.53
2023-03-27T09:43:09.908Z,4.23
2023-03-27T09:45:45.123Z,4.30
2023-03-27T09:48:29.759Z,5.47
2023-03-27T09:51:04.111Z,5.30
2023-03-27T09:53:39.127Z,5.57
2023-03-27T09:56:16.468Z,4.03
2023-03-27T09:58:51.858Z,5.77
2023-03-27T10:01:34.218Z,5.43
2023-03-27T10:04:16.247Z,5.70
2023-03-27T10:06:53.692Z,6.13
2023-03-27T10:09:29.216Z,5.13
2023-03-27T10:12:10.330Z,4.27
2023-03-27T10:14:47.739Z,3.30
2023-03-27T10:17:27.175Z,3.63
2023-03-27T10:20:09.115Z,4.43
2023-03-27T10:22:45.153Z,3.73
2023-03-27T10:25:21.680Z,3.43
2023-03-27T10:27:55.970Z,5.73
2023-03-27T10:30:34.151Z,4.97
2023-03-27T10:33:08.419Z,3.33
2023-03-27T10:35:45.407Z,4.83
2023-03-27T10:38:19.444Z,3.60
2023-03-27T10:40:53.251Z,4.77
2023-03-27T10:43:33.728Z,4.17
2023-03-27T10:46:12.861Z,4.07
2023-03-27T10:48:55.238Z,6.03
2023-03-27T10:51:46.464Z,3.77
2023-03-27T10:54:35.599Z,4.57
2023-03-27T10:57:16.207Z,5.10
2023-03-27T10:59:55.752Z,5.10
2023-03-27T11:02:39.434Z,5.50
2023-03-27T11:05:17.297Z,4.23
2023-03-27T11:07:55.817Z,6.50
2023-03-27T11:10:35.064Z,4.10
2023-03-27T11:13:15.858Z,3.00
2023-03-27T11:15:54.052Z,5.83
2023-03-27T11:18:32.165Z,5.97
2023-03-27T11:21:12.720Z,6.03
2023-03-27T11:23:52.068Z,4.03
2023-03-27T11:26:34.168Z,4.60
2023-03-27T11:29:15.235Z,4.40
2023-03-27T11:31:52.284Z,6.43
2023-03-27T11:34:35.206Z,3.10
2023-03-27T11:37:17.834Z,4.23
2023-03-27T11:39:55.688Z,4.53
2023-03-27T11:42:32.655Z,3.37
2023-03-27T11:45:11.072Z,4.30
2023-03-27T11:47:59.576Z,3.90
2023-03-27T11:50:44.415Z,4.10
2023-03-27T11:53:45.255Z,4.60
2023-03-27T11:56:35.479Z,5.80
2023-03-27T11:59:28.390Z,5.13
2023-03-27T12:02:17.644Z,4.80
2023-03-27T12:04:56.782Z,5.17
2023-03-27T12:07:48.124Z,5.03
2023-03-27T12:10:30.617Z,3.50
2023-03-27T12:14:00.519Z,2.80
2023-03-27T12:16:58.331Z,4.43
2023-03-27T12:19:51.246Z,4.10
2023-03-27T12:22:39.763Z,3.60
2023-03-27T12:25:35.892Z,3.47
2023-03-27T12:28:40.137Z,6.83
2023-03-27T12:31:32.320Z,2.57
2023-03-27T12:34:07.212Z,3.67
2023-03-27T12:36:44.576Z,5.60
2023-03-27T12:39:26.009Z,3.93
2023-03-27T12:41:59.070Z,3.37
2023-03-27T12:44:33.395Z,4.00
2023-03-27T12:47:15.393Z,4.27
2023-03-27T12:49:59.553Z,2.77
2023-03-27T12:52:32.886Z,4.20
2023-03-27T12:55:31.884Z,4.17
2023-03-27T12:58:07.289Z,3.70
2023-03-27T13:00:40.562Z,5.17
2023-03-27T13:03:50.358Z,4.67
2023-03-27T13:06:40.142Z,3.97
2023-03-27T13:09:55.719Z,2.60
2023-03-27T13:13:07.240Z,3.20
2023-03-27T13:16:03.054Z,4.13
2023-03-27T13:18:54.078Z,2.40
2023-03-27T13:21:39.108Z,2.67
2023-03-27T13:24:34.116Z,3.07
2023-03-27T13:27:32.571Z,2.23
2023-03-27T13:30:11.915Z,2.20
2023-03-27T13:33:14.474Z,2.37
2023-03-27T13:36:04.150Z,2.75
2023-03-27T13:39:22.309Z,3.83
2023-03-27T13:42:07.333Z,3.77
2023-03-27T13:44:55.370Z,3.57
2023-03-27T13:48:30.176Z,3.17
2023-03-27T13:51:29.481Z,3.77
2023-03-27T13:55:05.072Z,5.70
2023-03-27T13:57:59.126Z,3.07
2023-03-27T14:01:03.563Z,5.40
2023-03-27T14:04:19.302Z,4.97
2023-03-27T14:07:49.110Z,4.23
2023-03-27T14:10:44.735Z,4.80
2023-03-27T14:13:42.478Z,3.63
2023-03-27T14:17:03.513Z,4.50
2023-03-27T14:20:19.100Z,3.27
2023-03-27T14:22:57.930Z,3.70
2023-03-27T14:25:36.453Z,2.87
2023-03-27T14:28:26.426Z,4.03
2023-03-27T14:31:02.251Z,6.10
2023-03-27T14:33:39.125Z,4.63
2023-03-27T14:36:16.583Z,3.37
2023-03-27T14:38:51.021Z,3.97
2023-03-27T14:41:25.535Z,4.03
2023-03-27T14:44:03.843Z,4.13
2023-03-27T14:46:37.382Z,4.67
2023-03-27T14:49:19.281Z,3.63
2023-03-27T14:51:55.379Z,4.93
2023-03-27T14:54:32.201Z,3.90
2023-03-27T14:57:10.839Z,4.67
2023-03-27T14:59:46.934Z,4.23
2023-03-27T15:02:26.532Z,4.13
2023-03-27T15:05:06.033Z,4.30
2023-03-27T15:07:39.240Z,5.43
2023-03-27T15:10:24.439Z,3.03
2023-03-27T15:12:57.865Z,2.40
2023-03-27T15:15:40.438Z,3.60
2023-03-27T15:18:22.472Z,3.87
2023-03-27T15:20:56.899Z,3.80
2023-03-27T15:23:37.772Z,2.77
2023-03-27T15:26:20.070Z,3.20
2023-03-27T15:29:01.759Z,3.13
2023-03-27T15:31:36.290Z,3.23
2023-03-27T15:34:24.397Z,4.63
2023-03-27T15:37:01.934Z,4.17
2023-03-27T15:39:38.307Z,4.50
2023-03-27T15:42:16.244Z,3.53
2023-03-27T15:44:49.407Z,3.80
2023-03-27T15:47:30.004Z,4.33
2023-03-27T15:50:19.889Z,3.47
2023-03-27T15:52:57.229Z,3.27
2023-03-27T15:55:38.506Z,3.33
2023-03-27T15:58:22.115Z,3.50
2023-03-27T16:01:01.381Z,3.87
2023-03-27T16:03:36.186Z,3.17
2023-03-27T16:06:15.819Z,3.90
2023-03-27T16:08:49.037Z,3.33
2023-03-27T16:11:42.777Z,4.60
2023-03-27T16:14:32.633Z,3.70
2023-03-27T16:17:25.117Z,3.30
2023-03-27T16:20:01.975Z,3.07
2023-03-27T16:22:38.024Z,3.00
2023-03-27T16:25:13.351Z,2.93
2023-03-27T16:27:49.797Z,3.67
2023-03-27T16:30:29.366Z,3.27
2023-03-27T16:33:03.205Z,3.23
2023-03-27T16:35:36.383Z,3.10
2023-03-27T16:38:09.800Z,3.70
2023-03-27T16:40:43.071Z,3.10
2023-03-27T16:43:16.523Z,4.20
2023-03-27T16:45:51.091Z,3.23
2023-03-27T16:48:24.202Z,3.53
2023-03-27T16:50:57.254Z,5.87
2023-03-27T16:53:30.322Z,3.40
2023-03-27T16:56:03.405Z,2.97
2023-03-27T16:58:36.569Z,3.30
2023-03-27T17:01:11.279Z,2.70
2023-03-27T17:03:44.353Z,3.17
2023-03-27T17:06:19.101Z,3.13
2023-03-27T17:08:55.386Z,3.13
2023-03-27T17:11:28.846Z,2.70
2023-03-27T17:14:02.014Z,4.50
2023-03-27T17:16:36.530Z,3.17
2023-03-27T17:19:09.659Z,3.27
2023-03-27T17:21:42.764Z,3.13
2023-03-27T17:24:17.368Z,3.47
2023-03-27T17:26:50.464Z,3.30
2023-03-27T17:29:23.925Z,3.97
2023-03-27T17:32:00.918Z,3.80
2023-03-27T17:34:34.063Z,4.63
2023-03-27T17:37:07.257Z,4.23
2023-03-27T17:39:41.068Z,3.33
2023-03-27T17:42:14.213Z,4.70
2023-03-27T17:44:47.430Z,4.10
2023-03-27T17:47:21.851Z,4.00
2023-03-27T17:49:54.933Z,4.27
2023-03-27T17:52:28.321Z,4.27
2023-03-27T17:55:01.478Z,5.70
2023-03-27T17:57:37.856Z,6.50
2023-03-27T18:00:12.418Z,5.57
2023-03-27T18:02:47.085Z,5.20
2023-03-27T18:05:20.234Z,5.33
2023-03-27T18:07:53.534Z,4.90
2023-03-27T18:10:26.804Z,5.10
2023-03-27T18:12:59.959Z,5.20
2023-03-27T18:15:33.435Z,7.23
2023-03-27T18:18:08.065Z,6.10
2023-03-27T18:20:41.489Z,6.43
2023-03-27T18:23:14.548Z,6.17
2023-03-27T18:25:47.782Z,5.13
2023-03-27T18:28:20.859Z,5.13
2023-03-27T18:31:02.028Z,4.63
2023-03-27T18:33:36.855Z,4.17
2023-03-27T18:36:12.204Z,4.30
2023-03-27T18:38:47.155Z,4.00
2023-03-27T18:41:21.516Z,3.70
2023-03-27T18:43:54.520Z,4.00
2023-03-27T18:46:27.745Z,4.60
2023-03-27T18:49:13.702Z,4.10
2023-03-27T18:51:54.868Z,4.27
2023-03-27T18:54:28.208Z,3.90
2023-03-27T18:57:01.238Z,3.83
2023-03-27T18:59:34.443Z,4.53
2023-03-27T19:02:09.258Z,4.43
2023-03-27T19:04:43.795Z,3.70
2023-03-27T19:07:17.401Z,3.50
2023-03-27T19:09:54.528Z,3.03
2023-03-27T19:12:27.657Z,3.77
2023-03-27T19:15:09.646Z,3.97
2023-03-27T19:17:46.806Z,3.70
2023-03-27T19:20:21.578Z,3.63
2023-03-27T19:22:54.734Z,3.53
2023-03-27T19:25:28.425Z,3.87
2023-03-27T19:28:01.741Z,3.57
2023-03-27T19:30:35.311Z,3.73
2023-03-27T19:33:08.710Z,3.80
2023-03-27T19:35:43.247Z,4.00
2023-03-27T19:38:16.633Z,3.50
2023-03-27T19:40:49.969Z,3.07
2023-03-27T19:43:23.177Z,3.57
2023-03-27T19:46:14.033Z,3.60
2023-03-27T19:48:49.692Z,3.80
2023-03-27T19:51:24.275Z,4.20
2023-03-27T19:53:57.491Z,4.33
2023-03-27T19:56:30.548Z,4.50
2023-03-27T19:59:04.059Z,4.50
2023-03-27T20:01:37.910Z,4.20
2023-03-27T20:04:11.446Z,4.43
2023-03-27T20:06:46.982Z,4.33
2023-03-27T20:09:20.335Z,5.30
2023-03-27T20:11:54.857Z,5.73
2023-03-27T20:14:27.995Z,4.70
2023-03-27T20:17:01.067Z,5.50
2023-03-27T20:19:34.864Z,5.47
2023-03-27T20:22:11.283Z,5.37
2023-03-27T20:24:44.714Z,5.33
2023-03-27T20:27:20.046Z,5.40
2023-03-27T20:29:53.132Z,5.53
2023-03-27T20:32:26.373Z,5.93
2023-03-27T20:35:03.362Z,5.83
2023-03-27T20:37:43.493Z,5.20
2023-03-27T20:40:18.026Z,5.97
2023-03-27T20:43:02.869Z,5.80
2023-03-27T20:45:43.184Z,6.30
2023-03-27T20:48:18.087Z,6.60
2023-03-27T20:50:53.061Z,6.93
2023-03-27T20:53:31.715Z,8.30
2023-03-27T20:56:08.036Z,6.70
2023-03-27T20:58:44.333Z,6.43
2023-03-27T21:01:19.410Z,7.27
2023-03-27T21:03:53.683Z,6.93
2023-03-27T21:06:26.898Z,7.67
2023-03-27T21:09:01.392Z,7.37
2023-03-27T21:11:34.777Z,7.57
2023-03-27T21:14:07.888Z,7.73
2023-03-27T21:16:41.373Z,8.00
2023-03-27T21:19:14.516Z,7.87
2023-03-27T21:21:47.929Z,8.27
2023-03-27T21:24:22.547Z,8.63
2023-03-27T21:26:55.769Z,8.23
2023-03-27T21:29:28.822Z,6.77
2023-03-27T21:32:02.034Z,8.70
2023-03-27T21:34:35.316Z,6.97
2023-03-27T21:37:08.398Z,7.27
2023-03-27T21:39:42.889Z,6.37
2023-03-27T21:42:16.484Z,6.33
2023-03-27T21:44:53.753Z,6.87
2023-03-27T21:47:37.310Z,5.90
2023-03-27T21:50:18.435Z,8.33
2023-03-27T21:52:51.467Z,6.63
2023-03-27T21:55:26.054Z,7.63
2023-03-27T21:57:59.195Z,6.40
2023-03-27T22:00:32.907Z,7.77
2023-03-27T22:03:06.763Z,6.37
2023-03-27T22:05:40.526Z,5.83
2023-03-27T22:08:13.718Z,6.43
2023-03-27T22:10:48.332Z,5.87
2023-03-27T22:13:21.372Z,6.00
2023-03-27T22:15:54.559Z,5.27
2023-03-27T22:18:27.668Z,5.40
2023-03-27T22:21:00.736Z,5.90
2023-03-27T22:23:33.861Z,5.87
2023-03-27T22:26:08.569Z,6.27
2023-03-27T22:28:41.908Z,5.20
2023-03-27T22:31:15.264Z,5.13
2023-03-27T22:33:48.559Z,5.33
2023-03-27T22:36:21.828Z,5.60
2023-03-27T22:38:54.850Z,5.90
2023-03-27T22:41:29.314Z,5.03
2023-03-27T22:44:02.757Z,5.53
2023-03-27T22:46:35.936Z,7.40
2023-03-27T22:49:09.025Z,5.77
2023-03-27T22:51:42.121Z,5.47
2023-03-27T22:54:15.548Z,5.63
2023-03-27T22:56:50.075Z,4.97
2023-03-27T22:59:23.473Z,5.03
2023-03-27T23:01:56.768Z,5.50
2023-03-27T23:04:30.382Z,5.80
2023-03-27T23:07:03.485Z,5.37
2023-03-27T23:09:36.693Z,4.80
2023-03-27T23:12:11.123Z,5.37
2023-03-27T23:14:44.178Z,4.40
2023-03-27T23:17:17.190Z,5.07
2023-03-27T23:19:50.311Z,5.00
2023-03-27T23:22:23.281Z,4.97
2023-03-27T23:24:56.503Z,6.90
2023-03-27T23:27:30.873Z,4.63
2023-03-27T23:30:04.358Z,5.70
2023-03-27T23:32:38.024Z,4.63
2023-03-27T23:35:13.007Z,5.47
2023-03-27T23:37:47.651Z,4.40
2023-03-27T23:40:20.768Z,4.63
2023-03-27T23:42:55.283Z,4.47
2023-03-27T23:45:28.273Z,5.00
2023-03-27T23:48:01.394Z,4.73
2023-03-27T23:50:34.407Z,5.53
2023-03-27T23:53:07.545Z,5.47
2023-03-27T23:55:40.608Z,4.67
2023-03-27T23:58:14.933Z,5.20
